Time;durP1;ratioP1;P1;durP2;ratioP2;P2;SDS_P1;SDS_P2;PMS_P1;PMS_P2;Temp;Humidity;BMP_temperature;BMP_pressure;BME280_temperature;BME280_humidity;BME280_pressure;Samples;Min_cycle;Max_cycle;Signal;HPM_P1;HPM_P2
2023/04/17 00:02:10;;;;;;;0.00;0.00;;;;;;;7.59;91.05;95679.84;4321364;32;20311;-55
2023/04/17 00:04:45;;;;;;;0.00;0.00;;;;;;;7.47;91.10;95668.78;4326088;32;20277;-55
2023/04/17 00:07:10;;;;;;;0.20;0.20;;;;;;;7.53;91.34;95670.34;4331346;32;20370;-56
2023/04/17 00:09:36;;;;;;;0.20;0.20;;;;;;;7.28;91.79;95672.19;4346309;32;20288;-56
2023/04/17 00:12:03;;;;;;;0.10;0.10;;;;;;;7.28;91.92;95667.69;4331243;32;20193;-56
2023/04/17 00:14:28;;;;;;;0.00;0.00;;;;;;;7.19;91.93;95674.56;4331467;32;20296;-55
2023/04/17 00:16:55;;;;;;;0.13;0.13;;;;;;;7.12;92.26;95669.53;4327288;32;20361;-55
2023/04/17 00:19:23;;;;;;;0.20;0.20;;;;;;;7.12;92.08;95664.25;4348563;32;20211;-55
2023/04/17 00:21:50;;;;;;;0.20;0.20;;;;;;;7.18;91.82;95670.34;4343696;32;20277;-54
2023/04/17 00:24:15;;;;;;;0.10;0.10;;;;;;;7.05;92.19;95662.94;4331463;32;20293;-57
2023/04/17 00:26:40;;;;;;;0.23;0.23;;;;;;;7.05;92.46;95668.22;4300179;33;20275;-55
2023/04/17 00:29:06;;;;;;;0.00;0.00;;;;;;;7.00;92.50;95665.56;4312346;32;20185;-56
2023/04/17 00:31:32;;;;;;;0.13;0.13;;;;;;;6.96;92.89;95662.66;4327546;32;20215;-56
2023/04/17 00:34:00;;;;;;;0.10;0.10;;;;;;;7.05;92.57;95668.22;4345346;32;20204;-56
2023/04/17 00:36:28;;;;;;;0.10;0.10;;;;;;;6.82;93.30;95665.03;4345121;32;20382;-56
2023/04/17 00:38:58;;;;;;;0.17;0.17;;;;;;;6.86;93.69;95667.91;4315448;32;20388;-54
2023/04/17 00:41:25;;;;;;;0.20;0.20;;;;;;;6.96;92.82;95664.50;4302086;33;20274;-56
2023/04/17 00:43:52;;;;;;;0.00;0.00;;;;;;;7.06;92.19;95662.69;4316915;33;20308;-55
2023/04/17 00:46:19;;;;;;;0.00;0.00;;;;;;;6.92;92.36;95664.22;4294009;33;20271;-57
2023/04/17 00:48:44;;;;;;;0.20;0.20;;;;;;;6.82;93.00;95670.28;4305620;33;20274;-56
2023/04/17 00:51:11;;;;;;;0.10;0.10;;;;;;;6.78;93.41;95666.59;4281082;33;20308;-52
2023/04/17 00:53:37;;;;;;;0.20;0.20;;;;;;;6.66;93.72;95671.28;4325166;33;20186;-58
2023/04/17 00:56:11;;;;;;;0.20;0.20;;;;;;;6.98;93.19;95671.09;4321559;32;20343;-55
2023/04/17 00:58:39;;;;;;;0.00;0.00;;;;;;;6.95;92.91;95663.72;4330275;33;20316;-57
2023/04/17 01:01:10;;;;;;;0.00;0.00;;;;;;;6.98;92.81;95657.13;4344412;32;20287;-54
2023/04/17 01:03:38;;;;;;;0.00;0.00;;;;;;;7.01;92.85;95667.16;4312416;33;20364;-56
2023/04/17 01:06:04;;;;;;;0.20;0.20;;;;;;;7.14;92.22;95666.63;4308768;33;20282;-56
2023/04/17 01:08:42;;;;;;;0.20;0.20;;;;;;;7.00;92.69;95657.66;4315156;32;20296;-54
2023/04/17 01:11:15;;;;;;;0.30;0.30;;;;;;;7.09;92.80;95661.34;4340220;32;20169;-55
2023/04/17 01:13:49;;;;;;;0.00;0.00;;;;;;;7.06;92.65;95648.72;4341557;32;20270;-52
2023/04/17 01:16:18;;;;;;;0.30;0.30;;;;;;;7.24;92.12;95645.56;4343520;33;20277;-53
2023/04/17 01:18:47;;;;;;;0.00;0.00;;;;;;;7.11;92.36;95646.06;4345055;33;20323;-55
2023/04/17 01:21:17;;;;;;;1.07;0.10;;;;;;;7.30;92.12;95644.47;4306716;32;20377;-53
2023/04/17 01:23:54;;;;;;;0.20;0.20;;;;;;;6.97;93.15;95634.44;4325465;33;20353;-53
2023/04/17 01:26:29;;;;;;;0.07;0.07;;;;;;;7.02;92.47;95637.09;4305556;33;20301;-55
2023/04/17 01:28:56;;;;;;;0.10;0.10;;;;;;;6.81;93.71;95641.56;4317934;33;20273;-54
2023/04/17 01:31:25;;;;;;;0.07;0.07;;;;;;;6.93;93.72;95643.94;4327723;32;20286;-58
2023/04/17 01:33:52;;;;;;;0.50;0.50;;;;;;;7.01;93.40;95648.69;4310321;33;20307;-57
2023/04/17 01:36:19;;;;;;;0.20;0.20;;;;;;;7.19;92.80;95645.53;4332884;32;20195;-58
2023/04/17 01:38:45;;;;;;;0.10;0.10;;;;;;;7.15;92.40;95652.41;4333779;32;20328;-58
2023/04/17 01:41:12;;;;;;;0.10;0.10;;;;;;;7.34;91.59;95650.81;4336587;32;20277;-57
2023/04/17 01:43:42;;;;;;;0.30;0.30;;;;;;;7.32;91.74;95647.66;4349830;32;20270;-58
2023/04/17 01:46:10;;;;;;;0.13;0.13;;;;;;;7.26;92.05;95655.84;4295556;32;20354;-55
2023/04/17 01:48:40;;;;;;;0.37;0.37;;;;;;;7.28;92.00;95657.13;4340717;32;20336;-56
2023/04/17 01:51:10;;;;;;;0.67;0.67;;;;;;;7.30;92.06;95660.31;4335822;32;20371;-57
2023/04/17 01:53:38;;;;;;;1.43;0.53;;;;;;;7.08;92.91;95659.75;4336323;32;20265;-57
2023/04/17 01:56:05;;;;;;;0.40;0.40;;;;;;;6.95;93.70;95658.44;4341768;32;20262;-55
2023/04/17 01:58:31;;;;;;;0.07;0.07;;;;;;;7.03;93.49;95654.50;4316237;33;20389;-56
2023/04/17 02:00:58;;;;;;;0.30;0.30;;;;;;;6.89;94.31;95660.28;4342127;32;20270;-55
2023/04/17 02:03:26;;;;;;;0.30;0.30;;;;;;;6.90;94.90;95663.69;4299078;33;20338;-56
2023/04/17 02:05:53;;;;;;;0.30;0.30;;;;;;;7.08;94.56;95662.41;4333763;32;20282;-55
2023/04/17 02:08:20;;;;;;;0.40;0.40;;;;;;;7.13;94.30;95667.69;4341453;32;20293;-56
2023/04/17 02:10:47;;;;;;;0.30;0.30;;;;;;;7.10;94.36;95666.38;4314488;32;20322;-54
2023/04/17 02:13:16;;;;;;;0.30;0.30;;;;;;;6.96;94.94;95659.25;4320080;33;20301;-54
2023/04/17 02:15:41;;;;;;;0.60;0.60;;;;;;;7.28;94.33;95659.00;4313015;32;20278;-56
2023/04/17 02:18:11;;;;;;;0.40;0.40;;;;;;;7.22;93.97;95658.22;4336799;32;20292;-60
2023/04/17 02:20:37;;;;;;;0.40;0.40;;;;;;;7.37;93.49;95660.84;4319846;32;20209;-57
2023/04/17 02:23:05;;;;;;;0.30;0.10;;;;;;;7.30;93.45;95657.66;4291774;33;20310;-56
2023/04/17 02:25:35;;;;;;;0.40;0.40;;;;;;;7.53;92.75;95654.50;4325038;32;20190;-55
2023/04/17 02:28:05;;;;;;;0.50;0.50;;;;;;;7.44;92.87;95656.09;4314865;32;20277;-53
2023/04/17 02:30:31;;;;;;;0.67;0.67;;;;;;;7.42;92.86;95657.41;4339883;32;20300;-55
2023/04/17 02:32:57;;;;;;;0.53;0.53;;;;;;;7.45;93.09;95659.53;4324894;32;20300;-56
2023/04/17 02:35:26;;;;;;;0.40;0.40;;;;;;;7.61;92.35;95655.03;4331425;32;20297;-53
2023/04/17 02:37:53;;;;;;;0.70;0.70;;;;;;;7.55;92.48;95651.59;4328481;32;20197;-55
2023/04/17 02:40:20;;;;;;;0.40;0.40;;;;;;;7.34;93.46;95656.09;4344771;32;20300;-54
2023/04/17 02:42:48;;;;;;;1.27;1.27;;;;;;;7.34;93.96;95656.09;4337985;32;20294;-53
2023/04/17 02:45:15;;;;;;;0.80;0.80;;;;;;;7.34;93.99;95650.81;4333346;32;20353;-55
2023/04/17 02:47:42;;;;;;;0.63;0.63;;;;;;;7.39;94.03;95652.66;4337568;32;20289;-54
2023/04/17 02:50:19;;;;;;;0.67;0.50;;;;;;;7.31;94.33;95653.97;4321126;32;20293;-53
2023/04/17 02:52:55;;;;;;;0.53;0.53;;;;;;;7.33;94.31;95659.00;4345745;32;20273;-54
2023/04/17 02:55:23;;;;;;;0.43;0.43;;;;;;;7.27;94.45;95658.22;4330722;32;20282;-57
2023/04/17 02:57:50;;;;;;;0.47;0.47;;;;;;;7.27;94.76;95658.22;4347337;32;20384;-56
2023/04/17 03:00:16;;;;;;;0.73;0.73;;;;;;;7.37;94.54;95649.50;4318088;32;20412;-55
2023/04/17 03:02:44;;;;;;;1.30;1.10;;;;;;;7.40;94.25;95656.91;4334748;32;20341;-55
2023/04/17 03:05:13;;;;;;;0.50;0.50;;;;;;;7.30;94.93;95652.41;4342870;32;20178;-56
2023/04/17 03:07:41;;;;;;;0.77;0.77;;;;;;;7.46;94.73;95654.00;4318255;33;20290;-56
2023/04/17 03:10:08;;;;;;;1.87;1.77;;;;;;;7.43;95.01;95653.72;4308981;32;20282;-55
2023/04/17 03:12:39;;;;;;;0.97;0.97;;;;;;;7.43;94.98;95653.72;4327417;32;20306;-54
2023/04/17 03:15:09;;;;;;;1.40;1.40;;;;;;;7.29;95.74;95642.88;4289544;33;20297;-56
2023/04/17 03:17:36;;;;;;;1.57;1.50;;;;;;;7.51;94.93;95634.69;4335835;32;20296;-52
2023/04/17 03:20:03;;;;;;;0.87;0.87;;;;;;;7.27;95.71;95642.38;4337866;32;20281;-56
2023/04/17 03:22:30;;;;;;;0.90;0.90;;;;;;;7.30;96.40;95644.47;4342477;32;20357;-53
2023/04/17 03:24:57;;;;;;;1.63;1.63;;;;;;;7.49;96.03;95642.88;4347754;32;20370;-56
2023/04/17 03:27:24;;;;;;;1.80;1.80;;;;;;;7.51;96.10;95648.69;4363019;32;20278;-56
2023/04/17 03:29:50;;;;;;;2.17;2.07;;;;;;;7.50;96.38;95641.03;4299557;32;20329;-52
2023/04/17 03:32:17;;;;;;;2.80;2.60;;;;;;;7.40;96.99;95647.13;4312866;32;20275;-55
2023/04/17 03:34:50;;;;;;;2.03;1.93;;;;;;;7.30;98.14;95644.47;4324704;32;20278;-55
2023/04/17 03:37:15;;;;;;;2.43;2.23;;;;;;;7.30;98.70;95649.75;4337276;32;20289;-53
2023/04/17 03:39:41;;;;;;;3.10;3.00;;;;;;;7.48;98.22;95643.94;4349368;32;20411;-54
2023/04/17 03:42:13;;;;;;;2.63;2.53;;;;;;;7.35;99.05;95646.34;4336741;32;20181;-54
2023/04/17 03:44:41;;;;;;;4.60;2.23;;;;;;;7.48;98.39;95646.56;4357701;32;20326;-56
2023/04/17 03:47:10;;;;;;;3.00;2.80;;;;;;;7.50;98.81;95644.47;4347328;32;20277;-56
2023/04/17 03:49:35;;;;;;;2.57;2.47;;;;;;;7.63;98.41;95647.63;4345420;32;20299;-53
2023/04/17 03:52:02;;;;;;;2.57;2.37;;;;;;;7.47;98.77;95660.06;4340809;32;20321;-56
2023/04/17 03:54:34;;;;;;;2.87;2.67;;;;;;;7.47;98.93;95650.31;4341033;32;20177;-53
2023/04/17 03:57:20;;;;;;;1.90;1.80;;;;;;;7.45;99.04;95662.97;4326819;32;20362;-54
2023/04/17 03:59:51;;;;;;;2.27;2.17;;;;;;;7.52;98.94;95658.19;4317658;32;20301;-55
2023/04/17 04:02:17;;;;;;;3.43;3.20;;;;;;;7.51;98.92;95656.59;4321436;32;20325;-56
2023/04/17 04:04:46;;;;;;;1.67;1.67;;;;;;;7.48;98.97;95666.94;4339440;32;20308;-54
2023/04/17 04:07:17;;;;;;;2.50;2.40;;;;;;;7.52;98.90;95662.69;4349646;32;20320;-55
2023/04/17 04:09:43;;;;;;;2.30;2.13;;;;;;;7.72;98.07;95661.88;4327381;32;20323;-55
2023/04/17 04:12:12;;;;;;;3.20;3.00;;;;;;;7.66;98.15;95662.94;4325493;32;20293;-56
2023/04/17 04:14:39;;;;;;;3.03;2.73;;;;;;;7.52;98.46;95662.69;4309950;32;20278;-54
2023/04/17 04:17:07;;;;;;;2.37;2.27;;;;;;;7.64;98.74;95671.13;4319618;32;20316;-56
2023/04/17 04:19:35;;;;;;;2.43;2.33;;;;;;;7.62;98.34;95667.19;4347390;32;20266;-55
2023/04/17 04:22:03;;;;;;;3.47;3.27;;;;;;;7.72;98.11;95660.03;4347018;32;20281;-55
2023/04/17 04:24:32;;;;;;;3.27;2.97;;;;;;;7.62;98.58;95662.69;4355154;32;20372;-55
2023/04/17 04:27:03;;;;;;;4.13;3.37;;;;;;;7.49;98.86;95665.84;4326492;32;20297;-56
2023/04/17 04:29:30;;;;;;;3.03;2.87;;;;;;;7.72;98.55;95664.50;4353628;32;20304;-56
2023/04/17 04:31:57;;;;;;;2.87;2.67;;;;;;;7.72;98.13;95667.16;4335489;32;20419;-54
2023/04/17 04:34:28;;;;;;;3.40;3.20;;;;;;;7.65;98.50;95661.38;4322674;32;20304;-54
2023/04/17 04:36:58;;;;;;;2.43;2.30;;;;;;;7.62;98.56;95662.69;4338848;32;20486;-53
2023/04/17 04:39:24;;;;;;;9.80;3.17;;;;;;;7.81;98.26;95665.56;4314278;33;20290;-53
2023/04/17 04:41:51;;;;;;;2.47;2.37;;;;;;;7.84;97.78;95670.31;4319587;32;20393;-54
2023/04/17 04:44:18;;;;;;;2.83;2.57;;;;;;;7.56;98.36;95679.59;4318974;32;20308;-54
2023/04/17 04:46:51;;;;;;;2.97;2.73;;;;;;;7.66;98.27;95669.03;4326879;32;20282;-53
2023/04/17 04:49:18;;;;;;;2.67;2.57;;;;;;;7.72;98.43;95673.22;4333257;32;20342;-56
2023/04/17 04:51:43;;;;;;;3.40;3.23;;;;;;;7.76;98.25;95673.50;4324639;32;20305;-55
2023/04/17 04:54:10;;;;;;;2.67;2.57;;;;;;;7.70;98.27;95669.25;4297057;33;20276;-52
2023/04/17 04:56:35;;;;;;;3.73;3.53;;;;;;;7.83;97.56;95668.72;4307200;33;20227;-53
2023/04/17 04:59:04;;;;;;;2.97;2.77;;;;;;;7.78;97.94;95666.88;4322943;33;20278;-55
2023/04/17 05:01:31;;;;;;;2.50;2.40;;;;;;;7.84;97.82;95659.75;4339266;32;20193;-55
2023/04/17 05:03:58;;;;;;;3.00;2.80;;;;;;;7.89;97.17;95662.41;4352095;32;20270;-55
2023/04/17 05:06:23;;;;;;;4.30;4.00;;;;;;;7.70;97.94;95669.25;4359199;32;20314;-56
2023/04/17 05:08:50;;;;;;;1.97;1.90;;;;;;;7.76;98.08;95673.50;4330013;32;20297;-55
2023/04/17 05:11:19;;;;;;;3.97;3.77;;;;;;;7.70;98.30;95670.06;4348982;32;20336;-56
2023/04/17 05:13:46;;;;;;;4.90;3.80;;;;;;;7.74;98.42;95686.94;4338108;32;20284;-56
2023/04/17 05:16:14;;;;;;;2.90;2.70;;;;;;;7.81;98.53;95681.41;4309866;32;20287;-56
2023/04/17 05:18:40;;;;;;;4.23;3.93;;;;;;;7.81;97.76;95687.47;4299666;33;20293;-57
2023/04/17 05:21:08;;;;;;;3.57;3.37;;;;;;;7.79;98.04;95684.31;4343235;32;20265;-60
2023/04/17 05:23:37;;;;;;;3.00;2.90;;;;;;;7.78;97.87;95685.38;4365704;32;20338;-54
2023/04/17 05:26:02;;;;;;;3.30;3.10;;;;;;;7.86;97.64;95684.84;4349832;32;20368;-55
2023/04/17 05:28:31;;;;;;;2.33;2.23;;;;;;;7.87;97.87;95685.63;4343380;32;20274;-56
2023/04/17 05:30:58;;;;;;;3.90;3.53;;;;;;;7.88;98.10;95687.22;4343320;32;20256;-56
2023/04/17 05:33:26;;;;;;;3.20;3.03;;;;;;;8.10;97.26;95693.00;4334609;32;20355;-58
2023/04/17 05:35:51;;;;;;;3.47;3.23;;;;;;;8.14;96.72;95688.72;4349426;32;20281;-56
2023/04/17 05:38:20;;;;;;;2.70;2.60;;;;;;;8.10;96.49;95700.13;4320470;32;20360;-57
2023/04/17 05:40:46;;;;;;;1.60;1.60;;;;;;;8.21;95.92;95697.19;4353737;32;20204;-57
2023/04/17 05:43:12;;;;;;;2.87;2.67;;;;;;;8.13;95.96;95699.56;4333566;32;20297;-57
2023/04/17 05:45:40;;;;;;;2.63;2.43;;;;;;;8.17;95.89;95700.63;4334512;32;20247;-56
2023/04/17 05:48:08;;;;;;;1.90;1.87;;;;;;;8.02;96.00;95708.59;4338726;32;20306;-57
2023/04/17 05:50:37;;;;;;;41.67;4.90;;;;;;;8.04;96.46;95701.97;4341737;32;20273;-51
2023/04/17 05:53:10;;;;;;;1.67;1.40;;;;;;;8.86;100.00;95692.72;4341288;32;20281;-53
2023/04/17 05:55:39;;;;;;;2.27;2.17;;;;;;;10.72;100.00;95697.75;4344589;32;20330;-53
2023/04/17 05:58:05;;;;;;;3.50;3.07;;;;;;;11.55;93.50;95697.09;4310829;32;20186;-52
2023/04/17 06:00:31;;;;;;;3.30;3.10;;;;;;;11.80;87.04;95709.22;4343353;32;20312;-52
2023/04/17 06:02:57;;;;;;;1.97;1.87;;;;;;;12.33;82.23;95707.75;4320395;32;20189;-52
2023/04/17 06:05:23;;;;;;;3.03;2.83;;;;;;;12.86;77.96;95704.59;4317842;32;20197;-54
2023/04/17 06:07:52;;;;;;;2.10;2.00;;;;;;;12.99;75.53;95724.31;4334231;32;20258;-51
2023/04/17 06:10:20;;;;;;;2.57;2.07;;;;;;;13.11;73.91;95726.44;4338252;32;20216;-53
2023/04/17 06:12:45;;;;;;;2.23;2.13;;;;;;;13.34;75.07;95725.44;4348464;32;20223;-52
2023/04/17 06:15:12;;;;;;;2.10;1.90;;;;;;;13.31;75.04;95732.16;4336872;32;20193;-53
2023/04/17 06:17:39;;;;;;;1.67;1.57;;;;;;;13.73;80.10;95730.16;4350494;32;20209;-50
2023/04/17 06:20:10;;;;;;;2.03;1.90;;;;;;;13.99;79.58;95731.13;4295663;32;20205;-48
2023/04/17 06:22:43;;;;;;;1.90;1.40;;;;;;;14.15;77.48;95734.19;4320385;32;20181;-48
2023/04/17 06:25:09;;;;;;;2.23;2.03;;;;;;;14.20;77.12;95731.41;4359149;32;20185;-54
2023/04/17 06:27:37;;;;;;;2.60;2.27;;;;;;;14.42;75.60;95735.94;4343871;32;20203;-53
2023/04/17 06:30:09;;;;;;;2.60;2.50;;;;;;;14.05;70.19;95737.91;4346362;32;20185;-55
2023/04/17 06:32:40;;;;;;;2.20;2.10;;;;;;;12.47;70.09;95744.25;4345371;32;20190;-52
2023/04/17 06:35:09;;;;;;;1.97;1.73;;;;;;;11.06;74.90;95743.47;4341496;32;20177;-54
2023/04/17 06:37:37;;;;;;;1.20;1.20;;;;;;;10.25;77.82;95744.41;4347255;32;20177;-52
2023/04/17 06:40:11;;;;;;;2.47;2.27;;;;;;;9.94;80.23;95742.00;4287797;32;20206;-52
2023/04/17 06:42:37;;;;;;;2.20;2.10;;;;;;;9.75;81.91;95741.13;4330761;32;20228;-50
2023/04/17 06:45:05;;;;;;;7.30;2.83;;;;;;;9.30;84.09;95737.72;4325949;32;20232;-53
2023/04/17 06:47:32;;;;;;;1.50;1.40;;;;;;;8.75;86.95;95741.44;4304822;32;20190;-53
2023/04/17 06:49:59;;;;;;;2.17;2.07;;;;;;;8.79;87.91;95744.31;4336430;32;20189;-52
2023/04/17 06:52:27;;;;;;;1.97;1.87;;;;;;;8.78;88.49;95748.81;4306584;32;20185;-52
2023/04/17 06:54:54;;;;;;;2.17;2.07;;;;;;;8.64;89.21;95747.84;4354009;32;20196;-51
2023/04/17 06:57:28;;;;;;;2.30;2.20;;;;;;;8.45;90.18;95738.91;4321860;32;20202;-53
2023/04/17 07:03:19;;;;;;;2.30;2.13;;;;;;;8.07;92.66;95745.56;4346747;32;20203;-52
2023/04/17 07:05:45;;;;;;;1.73;1.63;;;;;;;8.34;91.57;95738.13;4358321;32;20185;-53
2023/04/17 07:08:14;;;;;;;3.77;2.40;;;;;;;8.45;91.16;95746.84;4335576;32;20278;-51
2023/04/17 07:10:41;;;;;;;3.10;1.87;;;;;;;8.06;92.35;95741.34;4285623;32;20214;-53
2023/04/17 07:13:10;;;;;;;2.77;2.53;;;;;;;7.94;93.76;95755.59;4309175;32;20277;-50
2023/04/17 07:15:39;;;;;;;3.57;2.37;;;;;;;7.89;94.73;95753.00;4297967;32;20353;-53
2023/04/17 07:18:06;;;;;;;2.00;1.90;;;;;;;7.97;94.10;95749.00;4319442;32;20298;-55
2023/04/17 07:20:34;;;;;;;2.10;2.00;;;;;;;8.04;94.14;95754.03;4323113;32;20270;-53
2023/04/17 07:23:02;;;;;;;2.93;2.53;;;;;;;7.65;95.60;95761.69;4293089;33;20296;-54
2023/04/17 07:25:30;;;;;;;2.10;2.00;;;;;;;7.80;95.63;95757.19;4327531;32;20270;-51
2023/04/17 07:27:57;;;;;;;2.00;1.90;;;;;;;8.00;94.95;95753.75;4317135;32;20320;-53
2023/04/17 07:30:24;;;;;;;1.20;1.20;;;;;;;8.06;94.63;95752.69;4305367;33;20294;-50
2023/04/17 07:32:50;;;;;;;2.10;2.00;;;;;;;7.87;94.72;95754.31;4282460;33;20295;-52
2023/04/17 07:35:18;;;;;;;2.50;2.30;;;;;;;7.51;96.62;95756.13;4318669;32;20274;-51
2023/04/17 07:37:45;;;;;;;2.50;2.37;;;;;;;7.58;96.85;95760.09;4323726;32;20197;-52
2023/04/17 07:40:15;;;;;;;2.00;1.90;;;;;;;7.52;97.37;95760.34;4330552;32;20305;-56
2023/04/17 07:42:43;;;;;;;2.97;2.80;;;;;;;7.58;97.01;95762.75;4292430;33;20275;-52
2023/04/17 07:45:12;;;;;;;4.70;3.23;;;;;;;7.69;96.57;95760.12;4320426;32;20305;-53
2023/04/17 07:47:39;;;;;;;1.90;1.80;;;;;;;7.71;96.47;95758.78;4300912;33;20404;-51
2023/04/17 07:50:09;;;;;;;2.00;1.90;;;;;;;7.92;96.35;95768.28;4313736;32;20373;-53
2023/04/17 07:52:35;;;;;;;2.70;2.50;;;;;;;7.90;96.18;95780.16;4331917;32;20381;-53
2023/04/17 07:55:02;;;;;;;2.77;1.97;;;;;;;7.91;95.99;95777.25;4323173;32;20281;-50
2023/04/17 07:57:31;;;;;;;2.47;2.33;;;;;;;8.02;95.77;95779.91;4296419;32;20257;-52
2023/04/17 07:59:57;;;;;;;2.00;1.90;;;;;;;8.30;94.80;95783.84;4312050;32;20177;-53
2023/04/17 08:02:26;;;;;;;3.93;2.50;;;;;;;8.37;93.98;95779.88;4303109;33;20293;-52
2023/04/17 08:04:55;;;;;;;2.53;2.43;;;;;;;8.43;93.80;95780.69;4318295;33;20204;-51
2023/04/17 08:07:26;;;;;;;3.13;2.93;;;;;;;8.54;93.73;95782.22;4306192;33;20282;-51
2023/04/17 08:09:52;;;;;;;1.83;1.73;;;;;;;8.44;93.71;95784.91;4321280;32;20296;-50
2023/04/17 08:12:19;;;;;;;3.40;3.13;;;;;;;8.74;93.11;95790.09;4324128;33;20274;-52
2023/04/17 08:14:46;;;;;;;3.83;2.63;;;;;;;8.74;93.00;95791.94;4334046;32;20178;-59
2023/04/17 08:17:12;;;;;;;2.83;2.70;;;;;;;8.68;93.01;95785.13;4317958;32;20244;-53
2023/04/17 08:19:42;;;;;;;2.83;2.63;;;;;;;8.89;92.13;95787.41;4275753;33;20369;-50
2023/04/17 08:22:09;;;;;;;2.33;2.23;;;;;;;9.19;91.03;95785.69;4309449;33;20496;-50
2023/04/17 08:24:36;;;;;;;1.77;1.67;;;;;;;9.14;90.97;95793.66;4315075;32;20293;-48
2023/04/17 08:27:04;;;;;;;3.17;2.97;;;;;;;9.09;90.93;95791.03;4313275;32;20262;-49
2023/04/17 08:29:31;;;;;;;2.73;2.53;;;;;;;8.77;91.95;95794.84;4330625;32;20174;-49
2023/04/17 08:31:58;;;;;;;4.23;2.50;;;;;;;8.90;92.01;95794.28;4324902;32;20259;-51
2023/04/17 08:34:26;;;;;;;2.67;2.57;;;;;;;8.90;92.41;95796.94;4354565;32;20189;-52
2023/04/17 08:36:51;;;;;;;3.43;2.43;;;;;;;9.08;91.73;95800.03;4324566;32;20177;-53
2023/04/17 08:39:20;;;;;;;3.40;3.20;;;;;;;8.99;92.02;95791.06;4344895;32;20231;-51
2023/04/17 08:41:57;;;;;;;3.60;3.30;;;;;;;9.12;91.61;95801.09;4343291;32;20204;-48
2023/04/17 08:44:25;;;;;;;2.30;2.20;;;;;;;9.06;92.00;95802.16;4313388;32;20213;-49
2023/04/17 08:46:57;;;;;;;2.57;2.47;;;;;;;8.90;92.46;95799.59;4335650;32;20204;-50
2023/04/17 08:49:28;;;;;;;3.10;2.90;;;;;;;9.19;92.10;95801.56;4331720;32;20194;-51
2023/04/17 08:51:55;;;;;;;3.00;2.83;;;;;;;9.41;91.01;95793.25;4301793;32;20265;-49
2023/04/17 08:54:23;;;;;;;6.27;2.57;;;;;;;9.52;90.20;95795.56;4322613;32;20194;-52
2023/04/17 08:56:49;;;;;;;5.90;3.50;;;;;;;9.52;90.37;95802.72;4345509;32;20224;-50
2023/04/17 08:59:24;;;;;;;3.90;2.93;;;;;;;9.56;90.62;95801.13;4340504;32;20189;-59
2023/04/17 09:02:09;;;;;;;3.87;3.67;;;;;;;9.63;89.54;95797.06;4350941;32;20189;-50
2023/04/17 09:04:47;;;;;;;2.57;2.47;;;;;;;9.63;89.56;95799.72;4348763;32;20384;-54
2023/04/17 09:07:17;;;;;;;3.20;3.00;;;;;;;9.78;89.67;95803.34;4343705;32;20204;-52
2023/04/17 09:09:57;;;;;;;3.17;2.93;;;;;;;9.90;88.85;95801.16;4321753;32;20207;-51
2023/04/17 09:12:27;;;;;;;4.00;3.67;;;;;;;9.68;88.70;95801.56;4342856;32;20169;-53
2023/04/17 09:14:53;;;;;;;10.53;3.70;;;;;;;9.80;89.04;95802.00;4347662;32;20224;-51
2023/04/17 09:17:23;;;;;;;2.37;2.27;;;;;;;9.89;88.60;95804.84;4347024;32;20235;-51
2023/04/17 09:20:11;;;;;;;3.37;3.17;;;;;;;9.76;88.24;95794.91;4331580;32;20177;-52
2023/04/17 09:22:42;;;;;;;3.67;3.47;;;;;;;9.65;89.31;95805.53;4314431;32;20215;-51
2023/04/17 09:25:19;;;;;;;3.97;3.67;;;;;;;9.88;89.18;95797.97;4323625;32;20185;-52
2023/04/17 09:27:45;;;;;;;3.93;3.63;;;;;;;10.22;88.46;95801.44;4340620;32;20193;-61
2023/04/17 09:30:19;;;;;;;3.27;3.07;;;;;;;10.12;88.55;95806.00;4353447;32;20204;-51
2023/04/17 09:32:46;;;;;;;3.33;3.13;;;;;;;9.82;89.12;95799.06;4317010;32;20189;-52
2023/04/17 09:35:27;;;;;;;3.83;3.57;;;;;;;10.15;89.07;95797.50;4323203;32;20225;-52
2023/04/17 09:37:58;;;;;;;4.93;4.47;;;;;;;10.33;88.06;95794.97;4329360;32;20200;-52
2023/04/17 09:40:38;;;;;;;3.80;3.53;;;;;;;10.39;87.04;95786.97;4343239;32;20223;-51
2023/04/17 09:43:06;;;;;;;4.07;3.77;;;;;;;10.59;86.99;95787.56;4348002;32;20177;-51
2023/04/17 09:45:38;;;;;;;5.00;4.60;;;;;;;10.80;86.77;95790.78;4340737;32;20245;-53
2023/04/17 09:48:12;;;;;;;4.40;4.10;;;;;;;10.93;85.40;95791.97;4360683;32;20266;-52
2023/04/17 09:50:39;;;;;;;4.37;4.17;;;;;;;10.69;85.71;95797.25;4302971;32;20228;-53
2023/04/17 09:53:06;;;;;;;5.63;5.23;;;;;;;10.83;85.56;95798.16;4324335;32;20244;-53
2023/04/17 09:55:36;;;;;;;4.67;4.20;;;;;;;10.73;85.34;95792.19;4328550;32;20185;-53
2023/04/17 09:58:06;;;;;;;4.27;4.07;;;;;;;10.76;85.15;95792.41;4348736;32;20181;-51
2023/04/17 10:00:42;;;;;;;4.53;4.13;;;;;;;10.89;83.04;95794.37;4356067;32;20222;-52
2023/04/17 10:03:17;;;;;;;4.37;4.07;;;;;;;10.81;84.30;95795.00;4362786;32;20267;-50
2023/04/17 10:05:53;;;;;;;5.40;5.00;;;;;;;10.77;84.46;95785.25;4347855;32;20185;-53
2023/04/17 10:08:34;;;;;;;4.97;4.47;;;;;;;10.92;83.97;95785.06;4343632;32;20225;-52
2023/04/17 10:11:08;;;;;;;4.70;4.40;;;;;;;10.87;84.29;95793.87;4337626;32;20204;-49
2023/04/17 10:14:25;;;;;;;4.53;4.23;;;;;;;10.96;84.37;95791.41;4333215;32;20185;-50
2023/04/17 10:16:58;;;;;;;4.50;4.20;;;;;;;10.77;84.90;95787.91;4301063;33;20289;-52
2023/04/17 10:19:35;;;;;;;5.40;5.07;;;;;;;10.73;85.69;95787.69;4338568;32;20192;-51
2023/04/17 10:22:39;;;;;;;4.37;4.10;;;;;;;10.79;86.01;95786.56;4324111;32;20249;-51
2023/04/17 10:25:28;;;;;;;3.87;3.57;;;;;;;10.55;85.74;95780.44;4349961;32;20252;-52
2023/04/17 10:28:01;;;;;;;3.20;3.10;;;;;;;10.70;85.00;95780.28;4352024;32;20264;-52
2023/04/17 10:30:58;;;;;;;4.43;4.13;;;;;;;10.87;84.20;95777.16;4311131;32;20224;-54
2023/04/17 10:33:26;;;;;;;4.27;3.90;;;;;;;10.90;84.80;95771.28;4342255;32;20189;-54
2023/04/17 10:36:34;;;;;;;4.40;4.10;;;;;;;11.09;83.08;95769.47;4350196;32;20223;-54
2023/04/17 10:39:17;;;;;;;4.77;4.40;;;;;;;11.14;83.35;95771.25;4328041;32;20189;-52
2023/04/17 10:42:03;;;;;;;4.60;4.30;;;;;;;11.28;81.71;95766.81;4324227;32;20215;-54
2023/04/17 10:44:40;;;;;;;4.40;4.20;;;;;;;10.98;82.27;95774.12;4336552;32;20271;-52
2023/04/17 10:47:14;;;;;;;4.93;4.33;;;;;;;11.24;82.64;95771.91;4355000;32;20176;-51
2023/04/17 10:50:00;;;;;;;4.03;3.83;;;;;;;11.13;82.18;95769.69;4346001;32;20252;-54
2023/04/17 10:52:44;;;;;;;4.30;3.93;;;;;;;11.29;81.16;95776.38;4333952;32;20185;-54
2023/04/17 10:55:15;;;;;;;4.93;4.50;;;;;;;11.29;80.96;95769.19;4344979;32;20224;-53
2023/04/17 10:58:11;;;;;;;4.53;4.33;;;;;;;11.23;82.13;95764.22;4318254;32;20193;-55
2023/04/17 11:00:49;;;;;;;4.40;4.10;;;;;;;11.30;81.24;95767.31;4284737;33;20273;-51
2023/04/17 11:03:25;;;;;;;5.13;4.73;;;;;;;11.30;80.80;95765.47;4336890;32;20181;-55
2023/04/17 11:05:51;;;;;;;5.60;5.10;;;;;;;11.22;81.82;95762.66;4338200;32;20189;-52
2023/04/17 11:08:20;;;;;;;3.90;3.70;;;;;;;11.00;83.49;95764.00;4326840;32;20200;-54
2023/04/17 11:10:56;;;;;;;4.37;4.13;;;;;;;11.15;82.49;95764.88;4334359;32;20233;-58
2023/04/17 11:13:24;;;;;;;4.13;3.80;;;;;;;11.45;81.45;95756.47;4344140;32;20202;-53
2023/04/17 11:15:51;;;;;;;6.03;5.63;;;;;;;11.69;80.87;95762.50;4351500;32;20227;-54
2023/04/17 11:18:19;;;;;;;5.57;5.07;;;;;;;11.32;81.23;95755.34;4334074;32;20239;-52
2023/04/17 11:20:45;;;;;;;4.53;4.23;;;;;;;11.48;81.53;95760.44;4346192;32;20193;-52
2023/04/17 11:23:12;;;;;;;5.30;4.83;;;;;;;11.69;80.84;95751.09;4340044;32;20247;-54
2023/04/17 11:25:39;;;;;;;4.73;4.33;;;;;;;11.59;80.77;95749.38;4343031;32;20181;-52
2023/04/17 11:31:28;;;;;;;5.27;4.80;;;;;;;11.93;79.65;95751.81;4359366;32;20192;-53
2023/04/17 11:33:53;;;;;;;4.80;4.50;;;;;;;11.59;80.74;95757.34;4361460;32;20231;-51
2023/04/17 11:36:21;;;;;;;4.87;4.07;;;;;;;11.48;81.14;95753.25;4349653;32;20197;-52
2023/04/17 11:38:47;;;;;;;4.67;4.37;;;;;;;11.58;80.62;95745.16;4336857;32;20173;-53
2023/04/17 11:41:12;;;;;;;5.17;4.80;;;;;;;11.66;80.60;95747.13;4354172;32;20185;-57
2023/04/17 11:43:38;;;;;;;3.20;3.10;;;;;;;11.41;80.39;95755.50;4347263;32;20195;-52
2023/04/17 11:46:04;;;;;;;6.17;5.67;;;;;;;11.12;82.42;95754.81;4348313;32;20193;-54
2023/04/17 11:48:31;;;;;;;3.60;3.40;;;;;;;11.22;82.38;95746.75;4340833;32;20244;-51
2023/04/17 11:51:02;;;;;;;4.10;3.90;;;;;;;11.34;82.69;95747.09;4352184;32;20259;-54
2023/04/17 11:53:29;;;;;;;3.67;3.47;;;;;;;11.66;80.46;95741.81;4345429;32;20229;-51
2023/04/17 11:56:18;;;;;;;3.90;3.67;;;;;;;11.97;79.58;95739.50;4360834;32;20264;-53
2023/04/17 11:58:51;;;;;;;4.30;4.10;;;;;;;11.83;79.20;95740.56;4334407;32;20185;-54